Time;durP1;ratioP1;P1;durP2;ratioP2;P2;SDS_P1;SDS_P2;PMS_P1;PMS_P2;Temp;Humidity;BMP_temperature;BMP_pressure;BME280_temperature;BME280_humidity;BME280_pressure;Samples;Min_cycle;Max_cycle;Signal;HPM_P1;HPM_P2
2022/06/28 00:02:04;;;;;;;;;;;15.40;99.90;;;;;;5089002;28;38021;-54
2022/06/28 00:04:31;;;;;;;;;;;15.50;99.90;;;;;;5088980;27;37173;-53
2022/06/28 00:06:59;;;;;;;;;;;15.40;99.90;;;;;;5088623;27;37941;-54
2022/06/28 00:09:27;;;;;;;;;;;15.40;99.90;;;;;;5088368;27;35387;-54
2022/06/28 00:11:54;;;;;;;;;;;15.40;99.90;;;;;;5088706;27;36621;-54
2022/06/28 00:17:06;;;;;;;;;;;15.40;99.90;;;;;;5089819;28;39359;-53
2022/06/28 00:19:33;;;;;;;;;;;15.40;99.90;;;;;;5089559;27;37961;-54
2022/06/28 00:22:00;;;;;;;;;;;15.30;99.90;;;;;;5088726;28;36622;-54
2022/06/28 00:24:29;;;;;;;;;;;15.30;99.90;;;;;;5088272;27;38234;-54
2022/06/28 00:26:56;;;;;;;;;;;15.30;99.90;;;;;;5090039;27;37801;-54
2022/06/28 00:29:23;;;;;;;;;;;15.30;99.90;;;;;;5088969;27;37734;-53
2022/06/28 00:31:50;;;;;;;;;;;15.40;99.90;;;;;;5087723;27;37931;-54
2022/06/28 00:34:17;;;;;;;;;;;15.30;99.90;;;;;;5088675;27;39523;-54
2022/06/28 00:36:44;;;;;;;;;;;15.20;99.90;;;;;;5088330;27;37794;-54
2022/06/28 00:39:11;;;;;;;;;;;15.20;99.90;;;;;;5088601;27;36307;-54
2022/06/28 00:41:40;;;;;;;;;;;15.20;99.90;;;;;;5087699;27;37046;-54
2022/06/28 00:44:07;;;;;;;;;;;15.20;99.90;;;;;;5088944;27;39015;-54
2022/06/28 00:46:34;;;;;;;;;;;15.30;99.90;;;;;;5088066;27;38448;-54
2022/06/28 00:49:01;;;;;;;;;;;15.20;99.90;;;;;;5088285;27;35002;-54
2022/06/28 00:51:28;;;;;;;;;;;15.20;99.90;;;;;;5087108;27;37583;-54
2022/06/28 00:53:55;;;;;;;;;;;15.10;99.90;;;;;;5088841;27;37105;-54
2022/06/28 00:56:23;;;;;;;;;;;15.10;99.90;;;;;;5087802;27;37583;-54
2022/06/28 00:58:52;;;;;;;;;;;15.10;99.90;;;;;;5087685;27;37098;-54
2022/06/28 01:01:19;;;;;;;;;;;15.10;99.90;;;;;;5087046;27;37917;-54
2022/06/28 01:03:46;;;;;;;;;;;15.10;99.90;;;;;;5089149;27;37138;-54
2022/06/28 01:06:13;;;;;;;;;;;15.10;99.90;;;;;;5088452;27;39023;-54
2022/06/28 01:08:41;;;;;;;;;;;15.10;99.90;;;;;;5088790;27;36887;-54
2022/06/28 01:11:19;;;;;;;;;;;15.10;99.90;;;;;;5088328;27;38606;-54
2022/06/28 01:13:47;;;;;;;;;;;15.10;99.90;;;;;;5087602;27;38302;-54
2022/06/28 01:16:16;;;;;;;;;;;15.10;99.90;;;;;;5088527;27;37404;-54
2022/06/28 01:18:43;;;;;;;;;;;15.10;99.90;;;;;;5088954;27;35040;-54
2022/06/28 01:21:12;;;;;;;;;;;15.10;99.90;;;;;;5087125;27;38331;-54
2022/06/28 01:23:40;;;;;;;;;;;15.00;99.90;;;;;;5089664;27;38778;-52
2022/06/28 01:26:07;;;;;;;;;;;15.00;99.90;;;;;;5086977;27;40307;-54
2022/06/28 01:28:35;;;;;;;;;;;15.00;99.90;;;;;;5088303;27;37845;-53
2022/06/28 01:31:02;;;;;;;;;;;15.00;99.90;;;;;;5087493;27;37862;-54
2022/06/28 01:33:29;;;;;;;;;;;15.00;99.90;;;;;;5088399;27;38155;-54
2022/06/28 01:35:56;;;;;;;;;;;15.00;99.90;;;;;;5088127;27;36381;-54
2022/06/28 01:38:23;;;;;;;;;;;15.00;99.90;;;;;;5087966;28;37189;-54
2022/06/28 01:40:52;;;;;;;;;;;14.90;99.90;;;;;;5087521;27;37371;-54
2022/06/28 01:43:19;;;;;;;;;;;14.90;99.90;;;;;;5088569;27;37242;-54
2022/06/28 01:45:46;;;;;;;;;;;14.90;99.90;;;;;;5088722;27;37156;-54
2022/06/28 01:48:14;;;;;;;;;;;14.90;99.90;;;;;;5088635;27;37856;-54
2022/06/28 01:50:41;;;;;;;;;;;14.90;99.90;;;;;;5087212;27;39315;-53
2022/06/28 01:53:08;;;;;;;;;;;14.90;99.90;;;;;;5089301;27;38581;-54
2022/06/28 01:55:35;;;;;;;;;;;14.90;99.90;;;;;;5086486;27;36282;-54
2022/06/28 01:58:04;;;;;;;;;;;14.90;99.90;;;;;;5086363;27;34949;-54
2022/06/28 02:00:31;;;;;;;;;;;14.90;99.90;;;;;;5086709;27;38101;-54
2022/06/28 02:02:58;;;;;;;;;;;14.90;99.90;;;;;;5087912;27;38389;-54
2022/06/28 02:05:26;;;;;;;;;;;14.80;99.90;;;;;;5088145;27;37441;-54
2022/06/28 02:07:54;;;;;;;;;;;14.80;99.90;;;;;;5087705;27;36196;-53
2022/06/28 02:10:23;;;;;;;;;;;14.80;99.90;;;;;;5091299;28;31214;-54
2022/06/28 02:12:51;;;;;;;;;;;14.80;99.90;;;;;;5091491;27;38763;-54
2022/06/28 02:15:19;;;;;;;;;;;14.80;99.90;;;;;;5091464;28;38504;-54
2022/06/28 02:17:46;;;;;;;;;;;14.80;99.90;;;;;;5090654;27;36352;-54
2022/06/28 02:20:14;;;;;;;;;;;14.80;99.90;;;;;;5091710;27;41142;-54
2022/06/28 02:22:41;;;;;;;;;;;14.70;99.90;;;;;;5091393;27;38597;-54
2022/06/28 02:25:08;;;;;;;;;;;14.70;99.90;;;;;;5090401;27;36506;-54
2022/06/28 02:27:35;;;;;;;;;;;14.70;99.90;;;;;;5090364;27;38813;-54
2022/06/28 02:30:02;;;;;;;;;;;14.70;99.90;;;;;;5090133;27;37829;-54
2022/06/28 02:32:31;;;;;;;;;;;14.70;99.90;;;;;;5090780;27;37187;-53
2022/06/28 02:40:29;;;;;;;;;;;14.70;99.90;;;;;;5071962;27;38938;-54
2022/06/28 02:42:58;;;;;;;;;;;14.70;99.90;;;;;;5090435;27;40400;-54
2022/06/28 02:45:26;;;;;;;;;;;14.70;99.90;;;;;;5091111;27;38300;-54
2022/06/28 02:47:55;;;;;;;;;;;14.70;99.90;;;;;;5091810;27;36529;-54
2022/06/28 02:50:22;;;;;;;;;;;14.60;99.90;;;;;;5090190;27;36713;-54
2022/06/28 02:52:49;;;;;;;;;;;14.60;99.90;;;;;;5090235;27;38506;-53
2022/06/28 02:55:17;;;;;;;;;;;14.60;99.90;;;;;;5088720;27;36263;-54
2022/06/28 02:57:44;;;;;;;;;;;14.60;99.90;;;;;;5089149;27;36450;-53
2022/06/28 03:00:13;;;;;;;;;;;14.60;99.90;;;;;;5089898;27;39165;-54
2022/06/28 03:02:40;;;;;;;;;;;14.60;99.90;;;;;;5089945;28;39340;-54
2022/06/28 03:05:11;;;;;;;;;;;14.60;99.90;;;;;;5089807;27;36530;-54
2022/06/28 03:07:38;;;;;;;;;;;14.50;99.90;;;;;;5091070;27;36567;-54
2022/06/28 03:10:06;;;;;;;;;;;14.60;99.90;;;;;;5089223;27;37263;-54
2022/06/28 03:12:33;;;;;;;;;;;14.60;99.90;;;;;;5090350;27;37079;-54
2022/06/28 03:15:00;;;;;;;;;;;14.50;99.90;;;;;;5091185;27;37555;-54
2022/06/28 03:17:27;;;;;;;;;;;14.50;99.90;;;;;;5090842;27;35216;-54
2022/06/28 03:19:54;;;;;;;;;;;14.50;99.90;;;;;;5087904;27;38567;-54
2022/06/28 03:22:22;;;;;;;;;;;14.50;99.90;;;;;;5090902;27;38868;-53
2022/06/28 03:24:49;;;;;;;;;;;14.50;99.90;;;;;;5090310;27;36479;-54
2022/06/28 03:27:16;;;;;;;;;;;14.50;99.90;;;;;;5089363;27;36435;-54
2022/06/28 03:29:43;;;;;;;;;;;14.50;99.90;;;;;;5088304;27;38474;-54
2022/06/28 03:32:10;;;;;;;;;;;14.50;99.90;;;;;;5089048;27;38432;-54
2022/06/28 03:34:38;;;;;;;;;;;14.50;99.90;;;;;;5090095;27;36283;-54
2022/06/28 03:37:05;;;;;;;;;;;14.50;99.90;;;;;;5090349;27;36918;-54
2022/06/28 03:39:33;;;;;;;;;;;14.50;99.90;;;;;;5089105;27;38508;-54
2022/06/28 03:42:00;;;;;;;;;;;14.50;99.90;;;;;;5088546;27;38080;-54
2022/06/28 03:44:27;;;;;;;;;;;14.60;99.90;;;;;;5090228;27;38767;-53
2022/06/28 03:46:54;;;;;;;;;;;14.60;99.90;;;;;;5090002;27;36083;-54
2022/06/28 03:49:21;;;;;;;;;;;14.60;99.90;;;;;;5090218;27;37143;-54
2022/06/28 03:51:48;;;;;;;;;;;14.60;99.90;;;;;;5088498;27;39799;-54
2022/06/28 03:54:15;;;;;;;;;;;14.60;99.90;;;;;;5089893;27;37101;-54
2022/06/28 03:56:44;;;;;;;;;;;14.70;99.90;;;;;;5087807;27;38523;-54
2022/06/28 03:59:11;;;;;;;;;;;14.70;99.90;;;;;;5087689;27;37829;-54
2022/06/28 04:01:38;;;;;;;;;;;14.70;99.90;;;;;;5089907;27;38214;-54
2022/06/28 04:04:05;;;;;;;;;;;14.80;99.90;;;;;;5088399;27;38309;-54
2022/06/28 04:06:32;;;;;;;;;;;14.80;99.90;;;;;;5088864;27;35108;-54
2022/06/28 04:08:59;;;;;;;;;;;14.90;99.90;;;;;;5089410;27;39502;-54
2022/06/28 04:11:27;;;;;;;;;;;14.90;99.90;;;;;;5089172;27;38252;-54
2022/06/28 04:13:55;;;;;;;;;;;14.90;99.90;;;;;;5088985;27;38169;-54
2022/06/28 04:16:23;;;;;;;;;;;14.90;99.90;;;;;;5090126;27;35666;-54
2022/06/28 04:18:50;;;;;;;;;;;15.00;99.90;;;;;;5088331;27;38560;-54
2022/06/28 04:21:18;;;;;;;;;;;15.20;99.90;;;;;;5089209;27;38995;-54
2022/06/28 04:23:45;;;;;;;;;;;15.30;99.90;;;;;;5089161;27;36232;-54
2022/06/28 04:26:15;;;;;;;;;;;15.40;99.90;;;;;;5089114;27;36295;-54
2022/06/28 04:28:42;;;;;;;;;;;15.50;99.90;;;;;;5088958;27;37284;-54
2022/06/28 04:31:11;;;;;;;;;;;15.50;99.90;;;;;;5088541;27;38469;-54
2022/06/28 04:33:38;;;;;;;;;;;15.60;99.90;;;;;;5088186;27;38663;-54
2022/06/28 04:36:05;;;;;;;;;;;15.70;99.90;;;;;;5088530;27;35206;-54
2022/06/28 04:38:32;;;;;;;;;;;15.80;99.90;;;;;;5088166;27;38660;-54
2022/06/28 04:40:59;;;;;;;;;;;15.90;99.90;;;;;;5088381;27;39863;-54
2022/06/28 04:43:26;;;;;;;;;;;16.00;99.90;;;;;;5089347;27;40202;-54
2022/06/28 04:45:54;;;;;;;;;;;16.10;99.90;;;;;;5087149;27;36928;-54
2022/06/28 04:48:23;;;;;;;;;;;16.10;99.90;;;;;;5089351;27;38779;-54
2022/06/28 04:50:50;;;;;;;;;;;16.20;99.90;;;;;;5088556;27;39797;-53
2022/06/28 04:53:17;;;;;;;;;;;16.30;99.90;;;;;;5088346;27;38226;-54
2022/06/28 04:55:44;;;;;;;;;;;16.40;99.90;;;;;;5087930;27;35383;-54
2022/06/28 04:58:11;;;;;;;;;;;16.50;99.90;;;;;;5087294;27;37919;-54
2022/06/28 05:00:38;;;;;;;;;;;16.50;99.90;;;;;;5087653;27;39197;-54
2022/06/28 05:03:05;;;;;;;;;;;16.60;99.90;;;;;;5086992;27;38003;-54
2022/06/28 05:05:34;;;;;;;;;;;16.60;99.90;;;;;;5087873;27;37162;-54
2022/06/28 05:08:01;;;;;;;;;;;16.70;99.90;;;;;;5088139;27;38815;-54
2022/06/28 05:10:28;;;;;;;;;;;16.90;99.90;;;;;;5087114;27;37903;-54
2022/06/28 05:12:55;;;;;;;;;;;17.10;99.90;;;;;;5087521;27;38884;-54
2022/06/28 05:15:22;;;;;;;;;;;17.30;99.90;;;;;;5086473;27;35938;-54
2022/06/28 05:17:49;;;;;;;;;;;17.60;99.90;;;;;;5088030;27;39141;-54
2022/06/28 05:20:16;;;;;;;;;;;17.70;99.90;;;;;;5087185;27;38298;-54
2022/06/28 05:22:44;;;;;;;;;;;17.80;99.90;;;;;;5086190;27;38165;-54
2022/06/28 05:25:11;;;;;;;;;;;17.80;99.90;;;;;;5087358;27;37001;-54
2022/06/28 05:27:39;;;;;;;;;;;17.80;99.90;;;;;;5087018;27;36479;-54
2022/06/28 05:30:06;;;;;;;;;;;17.70;99.90;;;;;;5088104;27;37517;-55
2022/06/28 05:32:33;;;;;;;;;;;17.80;99.90;;;;;;5086691;27;37320;-54
2022/06/28 05:35:00;;;;;;;;;;;17.80;99.90;;;;;;5085503;27;37040;-55
2022/06/28 05:37:27;;;;;;;;;;;17.80;99.90;;;;;;5086010;27;37762;-55
2022/06/28 05:39:56;;;;;;;;;;;17.90;99.90;;;;;;5086590;27;41572;-55
2022/06/28 05:42:26;;;;;;;;;;;18.00;99.90;;;;;;5085905;27;36983;-55
2022/06/28 05:44:53;;;;;;;;;;;18.00;99.90;;;;;;5090172;28;36264;-55
2022/06/28 05:47:20;;;;;;;;;;;18.10;99.90;;;;;;5091742;27;39893;-55
2022/06/28 05:49:47;;;;;;;;;;;18.20;99.90;;;;;;5091392;28;39430;-54
2022/06/28 05:52:14;;;;;;;;;;;18.20;99.90;;;;;;5090510;27;37852;-55
2022/06/28 05:54:41;;;;;;;;;;;18.30;99.90;;;;;;5091796;28;36609;-55
2022/06/28 05:57:09;;;;;;;;;;;18.40;99.90;;;;;;5091980;27;38040;-54
2022/06/28 05:59:36;;;;;;;;;;;18.40;99.90;;;;;;5091869;27;38036;-54
2022/06/28 06:02:04;;;;;;;;;;;18.40;99.90;;;;;;5090960;27;38946;-55
2022/06/28 06:04:31;;;;;;;;;;;18.40;99.90;;;;;;5091624;28;36162;-55
2022/06/28 06:06:58;;;;;;;;;;;18.50;99.90;;;;;;5091375;27;39186;-55
2022/06/28 06:09:25;;;;;;;;;;;18.50;99.90;;;;;;5086434;27;37201;-55
2022/06/28 06:11:52;;;;;;;;;;;18.60;99.90;;;;;;5086048;27;37692;-55
2022/06/28 06:14:21;;;;;;;;;;;18.60;99.90;;;;;;5085535;27;37065;-54
2022/06/28 06:16:50;;;;;;;;;;;18.60;99.90;;;;;;5085960;27;40296;-55
2022/06/28 06:19:17;;;;;;;;;;;18.70;99.90;;;;;;5084743;27;39561;-55
2022/06/28 06:21:45;;;;;;;;;;;18.80;99.90;;;;;;5085808;27;37245;-54
2022/06/28 06:24:12;;;;;;;;;;;18.90;99.90;;;;;;5085625;27;35855;-55
2022/06/28 06:26:40;;;;;;;;;;;19.00;99.90;;;;;;5087038;27;37441;-55
2022/06/28 06:29:07;;;;;;;;;;;19.00;99.90;;;;;;5085909;27;36942;-55
2022/06/28 06:31:36;;;;;;;;;;;19.10;99.90;;;;;;5086425;27;37786;-55
2022/06/28 06:34:03;;;;;;;;;;;19.10;99.90;;;;;;5086358;27;36331;-55
2022/06/28 06:36:30;;;;;;;;;;;19.10;99.90;;;;;;5087099;27;37600;-54
2022/06/28 06:38:57;;;;;;;;;;;19.20;99.90;;;;;;5085043;27;38937;-55
2022/06/28 06:41:24;;;;;;;;;;;19.20;99.90;;;;;;5085054;28;39010;-55
2022/06/28 06:43:52;;;;;;;;;;;19.20;99.90;;;;;;5085456;27;35856;-55
2022/06/28 06:46:19;;;;;;;;;;;19.30;99.90;;;;;;5085370;27;37890;-55
2022/06/28 06:48:48;;;;;;;;;;;19.40;99.90;;;;;;5083889;27;39051;-54
2022/06/28 06:51:15;;;;;;;;;;;19.40;99.90;;;;;;5084122;27;38112;-55
2022/06/28 06:53:42;;;;;;;;;;;19.50;99.90;;;;;;5085791;27;35853;-54
2022/06/28 06:56:09;;;;;;;;;;;19.60;99.90;;;;;;5085737;27;38297;-55
2022/06/28 06:58:36;;;;;;;;;;;19.60;99.90;;;;;;5083315;27;37926;-55
2022/06/28 07:01:03;;;;;;;;;;;19.80;99.90;;;;;;5085818;27;37729;-55
2022/06/28 07:03:30;;;;;;;;;;;19.70;99.90;;;;;;5085472;27;35270;-55
2022/06/28 07:05:59;;;;;;;;;;;19.70;99.90;;;;;;5086285;27;37592;-55
2022/06/28 07:08:26;;;;;;;;;;;19.80;99.90;;;;;;5084789;27;38417;-55
2022/06/28 07:10:53;;;;;;;;;;;19.80;99.90;;;;;;5081835;27;36279;-55
2022/06/28 07:13:20;;;;;;;;;;;19.90;99.90;;;;;;5084666;27;36939;-53
2022/06/28 07:15:48;;;;;;;;;;;20.00;99.90;;;;;;5084392;28;37645;-54
2022/06/28 07:18:15;;;;;;;;;;;20.00;99.90;;;;;;5085169;27;38725;-53
2022/06/28 07:20:42;;;;;;;;;;;20.10;99.90;;;;;;5086176;27;38126;-53
2022/06/28 07:23:11;;;;;;;;;;;20.10;99.90;;;;;;5086839;27;37078;-53
2022/06/28 07:25:38;;;;;;;;;;;20.20;99.90;;;;;;5085736;27;38454;-53
2022/06/28 07:28:08;;;;;;;;;;;20.30;99.90;;;;;;5085334;27;39107;-54
2022/06/28 07:30:35;;;;;;;;;;;20.30;99.90;;;;;;5085453;27;39085;-53
2022/06/28 07:33:02;;;;;;;;;;;20.20;99.90;;;;;;5085672;27;36900;-54
2022/06/28 07:35:29;;;;;;;;;;;20.10;99.90;;;;;;5085736;27;38659;-54
2022/06/28 07:37:57;;;;;;;;;;;20.00;99.90;;;;;;5085015;27;36998;-54
2022/06/28 07:40:25;;;;;;;;;;;20.00;99.90;;;;;;5084863;27;38410;-53
2022/06/28 07:42:52;;;;;;;;;;;20.10;99.90;;;;;;5083959;27;36742;-54
2022/06/28 07:45:19;;;;;;;;;;;20.10;99.90;;;;;;5083589;28;36624;-53
2022/06/28 07:47:47;;;;;;;;;;;20.20;99.90;;;;;;5084432;27;39678;-53
2022/06/28 07:53:00;;;;;;;;;;;20.30;99.90;;;;;;5085543;28;37020;-53
2022/06/28 07:55:28;;;;;;;;;;;20.40;99.60;;;;;;5084728;27;38939;-53
2022/06/28 07:57:55;;;;;;;;;;;20.50;99.80;;;;;;5083534;27;38106;-54
2022/06/28 08:00:23;;;;;;;;;;;20.60;99.90;;;;;;5084471;27;36444;-54
2022/06/28 08:02:50;;;;;;;;;;;20.60;99.60;;;;;;5084227;27;36605;-54
2022/06/28 08:05:17;;;;;;;;;;;20.60;99.30;;;;;;5084229;28;37889;-53
2022/06/28 08:07:44;;;;;;;;;;;20.60;99.60;;;;;;5083340;27;41126;-53
2022/06/28 08:10:11;;;;;;;;;;;20.70;99.30;;;;;;5084230;27;37542;-53
2022/06/28 08:12:40;;;;;;;;;;;20.80;99.30;;;;;;5085608;27;35026;-53
2022/06/28 08:15:08;;;;;;;;;;;20.90;99.10;;;;;;5085289;27;36596;-54
2022/06/28 08:17:35;;;;;;;;;;;21.00;98.00;;;;;;5084649;27;37819;-53
2022/06/28 08:20:02;;;;;;;;;;;21.00;97.70;;;;;;5084130;27;38296;-53
2022/06/28 08:22:29;;;;;;;;;;;21.00;98.40;;;;;;5085210;28;35195;-54
2022/06/28 08:24:56;;;;;;;;;;;21.00;96.30;;;;;;5084044;27;37618;-54
2022/06/28 08:27:23;;;;;;;;;;;21.10;96.00;;;;;;5084508;27;38138;-54
2022/06/28 08:29:52;;;;;;;;;;;21.10;96.70;;;;;;5083458;27;37458;-54
2022/06/28 08:32:20;;;;;;;;;;;21.10;97.40;;;;;;5085587;27;36248;-54
2022/06/28 08:34:47;;;;;;;;;;;21.10;95.90;;;;;;5084417;27;37975;-52
2022/06/28 08:37:14;;;;;;;;;;;21.10;96.40;;;;;;5084772;27;37092;-53
2022/06/28 08:39:41;;;;;;;;;;;21.00;94.80;;;;;;5082536;27;37607;-54
2022/06/28 08:42:10;;;;;;;;;;;21.10;96.00;;;;;;5083009;27;35115;-54
2022/06/28 08:44:38;;;;;;;;;;;21.10;96.00;;;;;;5082411;27;38188;-53
2022/06/28 08:47:07;;;;;;;;;;;21.20;95.20;;;;;;5083926;27;38049;-54
2022/06/28 08:49:36;;;;;;;;;;;21.40;95.90;;;;;;5083905;27;36266;-54
2022/06/28 08:52:03;;;;;;;;;;;21.40;95.70;;;;;;5084329;27;36930;-54
2022/06/28 08:54:31;;;;;;;;;;;21.50;96.30;;;;;;5084619;27;37617;-54
2022/06/28 08:56:59;;;;;;;;;;;21.60;94.60;;;;;;5084008;27;38418;-53
2022/06/28 08:59:26;;;;;;;;;;;21.60;93.90;;;;;;5083659;27;37085;-53
2022/06/28 09:01:54;;;;;;;;;;;21.50;93.30;;;;;;5084038;27;35011;-53
2022/06/28 09:04:22;;;;;;;;;;;21.40;94.20;;;;;;5084306;27;40150;-53
2022/06/28 09:06:49;;;;;;;;;;;21.30;95.30;;;;;;5084007;27;38798;-53
2022/06/28 09:09:16;;;;;;;;;;;21.20;94.70;;;;;;5084868;27;36514;-52
2022/06/28 09:11:44;;;;;;;;;;;21.10;94.70;;;;;;5083472;27;36297;-52
2022/06/28 09:14:22;;;;;;;;;;;21.00;95.70;;;;;;5083746;27;38021;-53
2022/06/28 09:16:49;;;;;;;;;;;20.80;95.60;;;;;;5083573;27;39724;-53
2022/06/28 09:19:32;;;;;;;;;;;20.60;95.80;;;;;;5084600;27;37944;-52
2022/06/28 09:22:01;;;;;;;;;;;20.40;96.70;;;;;;5083077;27;36209;-53
2022/06/28 09:24:28;;;;;;;;;;;20.30;97.10;;;;;;5084248;27;38976;-53
2022/06/28 09:27:00;;;;;;;;;;;20.20;98.00;;;;;;5084623;27;38413;-53
2022/06/28 09:29:27;;;;;;;;;;;20.20;97.70;;;;;;5084201;27;37621;-52
2022/06/28 09:31:54;;;;;;;;;;;20.20;97.80;;;;;;5084251;27;36558;-52
2022/06/28 09:34:23;;;;;;;;;;;20.10;98.50;;;;;;5084513;27;36614;-53
2022/06/28 09:36:55;;;;;;;;;;;20.10;98.90;;;;;;5084478;27;37021;-53
2022/06/28 09:39:22;;;;;;;;;;;20.10;98.70;;;;;;5083122;27;36375;-53
2022/06/28 09:41:50;;;;;;;;;;;20.20;98.80;;;;;;5083731;27;36374;-53
2022/06/28 09:44:18;;;;;;;;;;;20.50;98.90;;;;;;5083981;27;37903;-53
2022/06/28 09:46:46;;;;;;;;;;;20.70;98.10;;;;;;5084452;27;39780;-51
2022/06/28 09:49:13;;;;;;;;;;;21.00;97.70;;;;;;5083600;28;36310;-53
2022/06/28 09:51:42;;;;;;;;;;;21.10;97.10;;;;;;5084014;27;36241;-53
2022/06/28 09:54:10;;;;;;;;;;;21.30;96.80;;;;;;5083166;28;36490;-53
2022/06/28 09:56:38;;;;;;;;;;;21.50;94.40;;;;;;5084411;27;41163;-52
2022/06/28 09:59:05;;;;;;;;;;;21.60;94.90;;;;;;5083526;27;38519;-53
2022/06/28 10:01:33;;;;;;;;;;;21.70;95.40;;;;;;5083461;27;36405;-53
2022/06/28 10:04:00;;;;;;;;;;;21.80;93.40;;;;;;5084062;27;39131;-53
2022/06/28 10:06:27;;;;;;;;;;;21.90;93.50;;;;;;5082695;27;38261;-53
2022/06/28 10:08:56;;;;;;;;;;;22.00;93.40;;;;;;5082912;27;36549;-52
2022/06/28 10:11:23;;;;;;;;;;;22.20;92.00;;;;;;5079516;27;35184;-53
2022/06/28 10:16:44;;;;;;;;;;;22.30;90.20;;;;;;5081395;28;38468;-53
2022/06/28 10:19:12;;;;;;;;;;;22.40;92.20;;;;;;5081774;27;39318;-53
2022/06/28 10:21:42;;;;;;;;;;;22.50;90.80;;;;;;5082155;28;36169;-53
2022/06/28 10:24:10;;;;;;;;;;;22.40;84.50;;;;;;5081335;28;38159;-52
2022/06/28 10:26:37;;;;;;;;;;;22.30;85.20;;;;;;5082696;27;38167;-53
2022/06/28 10:29:05;;;;;;;;;;;22.30;91.10;;;;;;5080990;27;38064;-53
2022/06/28 10:31:36;;;;;;;;;;;22.40;91.80;;;;;;5084413;28;37019;-53
2022/06/28 10:34:04;;;;;;;;;;;22.50;87.60;;;;;;5085177;27;37095;-53
2022/06/28 10:36:41;;;;;;;;;;;22.60;90.20;;;;;;5084515;27;38443;-52
2022/06/28 10:39:25;;;;;;;;;;;22.50;90.60;;;;;;5084284;28;36675;-53
2022/06/28 10:41:53;;;;;;;;;;;22.40;90.00;;;;;;5082932;27;38923;-53
2022/06/28 10:44:21;;;;;;;;;;;22.20;90.90;;;;;;5084405;27;38406;-53
2022/06/28 10:46:57;;;;;;;;;;;22.30;92.80;;;;;;5082281;27;40449;-53
2022/06/28 10:49:24;;;;;;;;;;;22.30;91.80;;;;;;5081938;27;39706;-53
2022/06/28 10:52:14;;;;;;;;;;;22.10;90.70;;;;;;5083518;27;36667;-53
2022/06/28 10:54:43;;;;;;;;;;;21.90;90.40;;;;;;5081136;27;37444;-53
2022/06/28 10:57:20;;;;;;;;;;;21.60;91.70;;;;;;5083795;27;38331;-53
2022/06/28 10:59:48;;;;;;;;;;;21.50;92.60;;;;;;5083976;27;37303;-53
2022/06/28 11:02:15;;;;;;;;;;;21.30;93.20;;;;;;5085971;27;35127;-53
2022/06/28 11:04:42;;;;;;;;;;;21.30;93.40;;;;;;5085148;27;37290;-53
2022/06/28 11:07:23;;;;;;;;;;;21.20;94.30;;;;;;5085381;27;38429;-52
2022/06/28 11:10:05;;;;;;;;;;;21.20;94.60;;;;;;5084345;27;37955;-53
2022/06/28 11:12:40;;;;;;;;;;;21.30;94.70;;;;;;5082318;27;36853;-53
2022/06/28 11:15:08;;;;;;;;;;;21.30;94.00;;;;;;5083466;27;37647;-53
2022/06/28 11:17:36;;;;;;;;;;;21.20;94.30;;;;;;5084648;27;38133;-53
2022/06/28 11:20:04;;;;;;;;;;;21.10;93.50;;;;;;5084274;27;37343;-53
2022/06/28 11:22:33;;;;;;;;;;;21.10;94.70;;;;;;5084754;27;37784;-54
2022/06/28 11:25:01;;;;;;;;;;;21.20;93.70;;;;;;5083906;27;37808;-52
2022/06/28 11:27:28;;;;;;;;;;;21.40;93.30;;;;;;5079161;27;38024;-53
2022/06/28 11:30:05;;;;;;;;;;;21.60;92.20;;;;;;5084561;27;36963;-51
2022/06/28 11:32:33;;;;;;;;;;;21.70;91.00;;;;;;5083990;27;36610;-53
2022/06/28 11:35:01;;;;;;;;;;;21.90;91.50;;;;;;5084865;28;37335;-53
2022/06/28 11:37:29;;;;;;;;;;;22.10;92.70;;;;;;5083514;27;38532;-53
2022/06/28 11:39:57;;;;;;;;;;;22.20;92.00;;;;;;5084829;27;38311;-53
2022/06/28 11:42:25;;;;;;;;;;;22.30;88.90;;;;;;5082878;27;38068;-54
2022/06/28 11:44:52;;;;;;;;;;;22.40;91.10;;;;;;5080658;27;38825;-53
2022/06/28 11:47:21;;;;;;;;;;;22.40;91.50;;;;;;5083645;27;39609;-53
2022/06/28 11:49:52;;;;;;;;;;;22.60;91.60;;;;;;5079971;27;37724;-53
2022/06/28 11:52:19;;;;;;;;;;;22.70;90.20;;;;;;5083837;27;36270;-53
2022/06/28 11:54:53;;;;;;;;;;;22.70;90.80;;;;;;5084413;27;37823;-53
2022/06/28 11:57:20;;;;;;;;;;;22.70;88.80;;;;;;5085270;27;38722;-53
2022/06/28 11:59:51;;;;;;;;;;;22.80;85.90;;;;;;5083929;27;37717;-53
2022/06/28 12:02:33;;;;;;;;;;;22.80;84.20;;;;;;5085143;27;37255;-53
2022/06/28 12:05:03;;;;;;;;;;;22.80;87.20;;;;;;5077595;27;38870;-54
2022/06/28 12:07:33;;;;;;;;;;;22.90;90.30;;;;;;5082871;28;37941;-54
2022/06/28 12:10:00;;;;;;;;;;;23.00;88.80;;;;;;5082876;27;37355;-54
2022/06/28 12:12:27;;;;;;;;;;;23.00;90.00;;;;;;5083182;27;35112;-54
2022/06/28 12:14:56;;;;;;;;;;;23.00;88.20;;;;;;5083666;27;37688;-54
2022/06/28 12:17:23;;;;;;;;;;;22.90;86.70;;;;;;5083316;27;39629;-54
2022/06/28 12:19:50;;;;;;;;;;;22.60;85.10;;;;;;5084852;27;37196;-54
2022/06/28 12:22:19;;;;;;;;;;;22.60;86.70;;;;;;5084320;27;36777;-53
2022/06/28 12:24:47;;;;;;;;;;;22.60;86.30;;;;;;5083707;27;37512;-53
2022/06/28 12:27:15;;;;;;;;;;;22.70;87.70;;;;;;5082396;27;37918;-53
2022/06/28 12:29:42;;;;;;;;;;;22.70;82.60;;;;;;5082919;27;37427;-53
2022/06/28 12:32:10;;;;;;;;;;;22.60;80.70;;;;;;5081931;27;37130;-52
2022/06/28 12:34:40;;;;;;;;;;;22.60;83.50;;;;;;5081159;28;36632;-54
2022/06/28 12:37:07;;;;;;;;;;;22.50;87.20;;;;;;5081544;27;38737;-54
2022/06/28 12:39:35;;;;;;;;;;;22.60;90.50;;;;;;5082098;27;37227;-53
2022/06/28 12:42:03;;;;;;;;;;;22.70;90.20;;;;;;5080921;27;35158;-54
2022/06/28 12:44:30;;;;;;;;;;;22.80;90.90;;;;;;5082253;27;41781;-54
2022/06/28 12:46:58;;;;;;;;;;;22.90;87.30;;;;;;5077342;27;38648;-54
2022/06/28 12:49:25;;;;;;;;;;;23.00;87.60;;;;;;5082294;28;40169;-53
2022/06/28 12:51:52;;;;;;;;;;;23.10;86.90;;;;;;5084132;27;36757;-54
2022/06/28 12:54:20;;;;;;;;;;;23.20;85.70;;;;;;5084124;27;38402;-54
2022/06/28 12:56:48;;;;;;;;;;;23.20;88.20;;;;;;5082695;27;37547;-54
2022/06/28 12:59:16;;;;;;;;;;;23.30;86.70;;;;;;5081480;27;41802;-53
2022/06/28 13:01:43;;;;;;;;;;;23.30;76.60;;;;;;5084735;27;36209;-54
2022/06/28 13:04:11;;;;;;;;;;;23.10;81.00;;;;;;5084579;27;38926;-53
2022/06/28 13:06:38;;;;;;;;;;;23.00;79.50;;;;;;5083316;27;37329;-53
2022/06/28 13:09:06;;;;;;;;;;;23.00;79.60;;;;;;5082402;27;37489;-54
2022/06/28 13:11:33;;;;;;;;;;;22.90;82.90;;;;;;5084840;27;35255;-54
2022/06/28 13:14:01;;;;;;;;;;;23.00;85.60;;;;;;5084308;27;38312;-53
2022/06/28 13:16:28;;;;;;;;;;;23.10;83.30;;;;;;5084894;27;38461;-54
2022/06/28 13:18:55;;;;;;;;;;;23.20;80.80;;;;;;5084398;27;37685;-53
2022/06/28 13:21:22;;;;;;;;;;;23.10;74.60;;;;;;5083725;27;36610;-54
2022/06/28 13:23:50;;;;;;;;;;;23.00;79.20;;;;;;5083692;27;37618;-54
2022/06/28 13:26:17;;;;;;;;;;;23.00;79.30;;;;;;5084619;27;37040;-54
2022/06/28 13:28:44;;;;;;;;;;;23.00;74.10;;;;;;5083323;27;38300;-54
2022/06/28 13:31:13;;;;;;;;;;;22.90;74.70;;;;;;5083516;27;35251;-53
2022/06/28 13:33:40;;;;;;;;;;;22.80;75.20;;;;;;5084918;27;36424;-54
2022/06/28 13:36:07;;;;;;;;;;;22.80;74.00;;;;;;5083948;27;39301;-54
2022/06/28 13:38:34;;;;;;;;;;;22.80;78.20;;;;;;5084000;27;38410;-54
2022/06/28 13:41:01;;;;;;;;;;;22.80;77.00;;;;;;5083349;27;37333;-54
2022/06/28 13:43:34;;;;;;;;;;;22.80;75.30;;;;;;5083042;28;37905;-54
2022/06/28 13:46:01;;;;;;;;;;;22.80;76.20;;;;;;5082489;27;38644;-53
2022/06/28 13:48:30;;;;;;;;;;;22.80;75.60;;;;;;5083554;27;38637;-54
2022/06/28 13:50:57;;;;;;;;;;;22.70;77.40;;;;;;5081907;27;37693;-54
2022/06/28 13:53:24;;;;;;;;;;;22.70;80.70;;;;;;5081422;27;37850;-54
2022/06/28 13:55:52;;;;;;;;;;;22.70;80.10;;;;;;5080607;27;39066;-55
2022/06/28 13:58:19;;;;;;;;;;;22.70;77.20;;;;;;5080863;27;36240;-54
2022/06/28 14:00:46;;;;;;;;;;;22.70;79.40;;;;;;5083108;27;36629;-54
2022/06/28 14:03:13;;;;;;;;;;;22.70;80.90;;;;;;5082407;27;38470;-53
2022/06/28 14:05:43;;;;;;;;;;;22.70;82.90;;;;;;5084291;27;40072;-54
2022/06/28 14:08:11;;;;;;;;;;;22.70;82.30;;;;;;5084810;28;36238;-54
2022/06/28 14:10:38;;;;;;;;;;;22.70;82.80;;;;;;5086251;27;36771;-54
2022/06/28 14:13:05;;;;;;;;;;;22.80;79.90;;;;;;5086598;27;39637;-54
2022/06/28 14:15:33;;;;;;;;;;;22.80;79.10;;;;;;5086931;27;39386;-54
2022/06/28 14:18:00;;;;;;;;;;;22.80;77.70;;;;;;5085140;27;37792;-54
2022/06/28 14:20:27;;;;;;;;;;;22.80;80.30;;;;;;5086171;27;36589;-53
2022/06/28 14:22:56;;;;;;;;;;;22.80;80.20;;;;;;5085400;27;38563;-54
2022/06/28 14:25:23;;;;;;;;;;;22.80;80.30;;;;;;5086190;27;39995;-54
2022/06/28 14:27:50;;;;;;;;;;;22.70;81.20;;;;;;5086015;27;38326;-54
2022/06/28 14:30:17;;;;;;;;;;;22.70;82.40;;;;;;5085676;27;36632;-54
2022/06/28 14:32:45;;;;;;;;;;;22.70;81.10;;;;;;5083756;27;40364;-54
2022/06/28 14:35:13;;;;;;;;;;;22.60;81.50;;;;;;5086298;28;39091;-54